Data for 06/07/2016

Time Sea-Level Adjusted Pressure Absolute Pressure Temperature Relative Humidity Dew Point   
(mb) (inHg) (mb) (inHg) (C) (F) (%) (C) (F)
00:05 1017 30.03 846 24.98 19.4 66.9 45 7.4 45.3
00:10 1017 30.03 846 24.98 19.4 66.9 45 7.4 45.4
00:15 1017 30.03 846 24.98 19.5 67 45 7.5 45.5
00:20 1017 30.03 846 24.98 19.4 66.9 46 7.7 45.9
00:25 1017 30.03 846 24.98 19 66.3 50 8.6 47.5
00:30 1017 30.03 846 24.98 18.4 65.2 52 8.6 47.5
00:35 1017 30.03 846 24.98 18 64.5 51 7.9 46.2
00:40 1017 30.03 846 24.98 18 64.3 51 7.7 45.9
00:45 1017 30.03 846 24.98 18.3 64.9 48 7.1 44.8
00:50 1017 30.03 846 24.98 18.4 65.2 48 7.3 45.1
00:55 1017 30.03 846 24.98 18.3 64.9 48 7.2 44.9
01:00 1017 30.03 846 24.98 18.1 64.7 50 7.6 45.7
01:05 1017 30.03 846 24.98 18 64.5 51 7.8 46.1
01:10 1017 30.03 846 24.98 17.8 64 52 8 46.4
01:15 1017 30.03 846 24.98 17.5 63.4 53 8 46.5
01:20 1017 30.03 846 24.98 17.3 63.2 54 7.9 46.3
01:25 1017 30.03 846 24.98 17.3 63.2 53 7.9 46.2
01:30 1017 30.03 846 24.98 17.4 63.4 55 8.3 46.9
01:35 1017 30.03 846 24.98 17.4 63.3 53 7.7 45.9
01:40 1017 30.03 846 24.98 17.2 62.9 52 7.3 45.2
01:45 1017 30.03 846 24.98 17.1 62.7 52 7.4 45.3
01:50 1017 30.03 846 24.98 16.6 61.8 54 7.4 45.3
01:55 1017 30.03 846 24.98 16.4 61.4 51 6.3 43.3
02:00 1017 30.03 846 24.98 16.2 61.2 51 6.2 43.2
02:05 1017 30.03 846 24.98 16.1 61 54 7 44.6
02:10 1017 30.03 846 24.98 16.1 61 56 7.4 45.3
02:15 1017 30.03 846 24.98 15.9 60.5 58 7.6 45.7
02:20 1017 30.03 846 24.98 15.5 59.9 59 7.6 45.7
02:25 1017 30.03 846 24.98 15.3 59.6 59 7.6 45.6
02:30 1017 30.03 846 24.98 15.4 59.7 57 7 44.7
02:35 1017 30.03 846 24.98 15.5 59.8 56 6.9 44.5
02:40 1017 30.03 846 24.98 15.6 60.1 54 6.5 43.8
02:45 1017 30.03 846 24.98 16.1 60.9 53 6.7 44
02:50 1017 30.03 846 24.98 16 60.7 54 6.8 44.2
02:55 1017 30.03 846 24.98 16 60.8 56 7.3 45.1
03:00 1017 30.03 846 24.98 15.6 60 54 6.5 43.7
03:05 1017 30.03 846 24.98 15.2 59.4 54 6 42.8
03:10 1017 30.03 846 24.98 15.3 59.5 54 6.2 43.2
03:15 1017 30.03 846 24.98 15.5 59.8 55 6.4 43.6
03:20 1017 30.03 846 24.98 15.2 59.3 58 7 44.6
03:25 1017 30.03 846 24.98 14.9 58.8 59 7.1 44.8
03:30 1017 30.03 846 24.98 14.7 58.5 61 7.5 45.4
03:35 1017 30.03 846 24.98 14.7 58.4 61 7.2 45
03:40 1016 30 846 24.98 14.6 58.2 60 7 44.6
03:45 1016 30 846 24.98 14.6 58.3 59 6.8 44.2
03:50 1016 30 846 24.98 14.9 58.7 57 6.5 43.7
03:55 1016 30 845 24.95 14.8 58.6 59 6.9 44.5
04:00 1016 30 845 24.95 14.7 58.4 59 6.9 44.3
04:05 1016 30 845 24.95 14.9 58.8 59 7.1 44.8
04:10 1016 30 845 24.95 14.8 58.7 59 7 44.6
04:15 1016 30 845 24.95 14.7 58.5 60 7.1 44.8
04:20 1016 30 845 24.95 14.8 58.6 60 7.2 44.9
04:25 1016 30 845 24.95 14.5 58.1 64 7.9 46.1
04:30 1016 30 845 24.95 14 57.2 64 7.5 45.4
04:35 1016 30 845 24.95 14.2 57.6 61 7 44.6
04:40 1016 30 845 24.95 14.6 58.3 60 7 44.6
04:45 1016 30 845 24.95 14.9 58.9 60 7.2 45
04:50 1016 30 845 24.95 14.9 58.9 61 7.4 45.4
04:55 1016 30 845 24.95 14.4 57.9 63 7.6 45.6
05:00 1016 30 845 24.95 14.1 57.3 63 7.3 45.1
05:05 1016 30 845 24.95 14.2 57.6 62 7.2 44.9
05:10 1016 30 845 24.95 14.7 58.5 59 6.8 44.2
05:15 1016 30 845 24.95 15.4 59.6 57 7 44.6
05:20 1016 30 845 24.95 15.5 60 57 7.2 44.9
05:25 1016 30 845 24.95 15.6 60 57 7.1 44.8
05:30 1016 30 845 24.95 15.8 60.4 56 7.2 44.9
05:35 1016 30 845 24.95 15.9 60.7 56 7.3 45.1
05:40 1016 30 845 24.95 16.1 61 55 7.2 45
05:45 1016 30 845 24.95 16.3 61.3 56 7.5 45.4
05:50 1016 30 845 24.95 16.4 61.5 56 7.7 45.9
05:55 1016 30 845 24.95 16.7 62 54 7.5 45.5
06:00 1016 30 845 24.95 16.9 62.4 54 7.5 45.6
06:05 1016 30 845 24.95 16.9 62.4 54 7.6 45.7
06:10 1016 30 845 24.95 16.8 62.3 54 7.6 45.7
06:15 1016 30 845 24.95 17 62.6 53 7.6 45.6
06:20 1016 30 845 24.95 17.5 63.4 54 8.2 46.8
06:25 1016 30 846 24.98 18 64.4 48 7 44.6
06:30 1016 30 846 24.98 18.4 65.1 49 7.5 45.5
06:35 1016 30 846 24.98 18.8 65.8 47 7.3 45.1
06:40 1017 30.03 846 24.98 18.9 66 47 7.5 45.5
06:45 1017 30.03 846 24.98 19.1 66.3 48 7.8 46.1
06:50 1017 30.03 846 24.98 19.6 67.3 48 8.3 47
06:55 1017 30.03 846 24.98 19.5 67.2 47 8.1 46.7
07:00 1017 30.03 846 24.98 18.8 65.9 49 7.9 46.2
07:05 1017 30.03 846 24.98 18.8 65.8 48 7.7 45.8
07:10 1017 30.03 846 24.98 19.3 66.8 47 8 46.4
07:15 1017 30.03 846 24.98 19.9 67.8 47 8.2 46.8
07:20 1017 30.03 846 24.98 20.2 68.4 47 8.7 47.7
07:25 1017 30.03 846 24.98 19.5 67.1 50 8.9 48
07:30 1017 30.03 846 24.98 19.4 66.9 49 8.7 47.6
07:35 1017 30.03 846 24.98 19.2 66.6 53 9.5 49.1
07:40 1017 30.03 846 24.98 18.9 66.1 50 8.4 47.2
07:45 1017 30.03 846 24.98 19.6 67.2 49 8.6 47.4
07:50 1017 30.03 846 24.98 19.8 67.6 46 8 46.4
07:55 1017 30.03 846 24.98 20.4 68.6 45 8.2 46.7
08:00 1017 30.03 846 24.98 20.9 69.6 44 8.5 47.2
08:05 1017 30.03 846 24.98 20.9 69.7 44 8.3 46.9
08:10 1017 30.03 846 24.98 21 69.9 43 8.2 46.8
08:15 1017 30.03 846 24.98 21.3 70.4 43 8.3 46.9
08:20 1017 30.03 846 24.98 21.2 70.1 41 7.6 45.7
08:25 1017 30.03 846 24.98 21.3 70.4 41 7.8 46
08:30 1017 30.03 846 24.98 21.5 70.7 41 7.8 46.1
08:35 1017 30.03 846 24.98 21.9 71.5 39 7.5 45.4
08:40 1017 30.03 846 24.98 21.9 71.5 37 6.9 44.5
08:45 1017 30.03 846 24.98 22.3 72.2 36 6.7 44.1
08:50 1017 30.03 846 24.98 22.2 71.9 38 7.5 45.5
08:55 1017 30.03 846 24.98 21.6 71 37 6.6 43.9
09:00 1017 30.03 846 24.98 22.5 72.6 37 7.5 45.5
09:05 1017 30.03 846 24.98 22.2 72 37 6.9 44.4
09:10 1017 30.03 846 24.98 22.7 72.8 33 5.8 42.4
09:15 1017 30.03 846 24.98 23.1 73.5 35 6.8 44.2
09:20 1017 30.03 846 24.98 23.2 73.8 33 6.4 43.5
09:25 1017 30.03 846 24.98 23.6 74.5 34 6.9 44.4
09:30 1017 30.03 846 24.98 23.9 75.1 32 6.4 43.5
09:35 1017 30.03 846 24.98 24.6 76.3 31 6.7 44
09:40 1017 30.03 846 24.98 23.9 74.9 33 6.7 44
09:45 1017 30.03 846 24.98 23.7 74.6 32 6.1 42.9
09:50 1016 30 846 24.98 24.3 75.7 32 6.6 43.8
09:55 1016 30 846 24.98 23.7 74.7 35 7.6 45.7
10:00 1016 30 846 24.98 24.3 75.7 33 7.2 44.9
10:05 1016 30 846 24.98 24.7 76.5 30 6.4 43.4
10:10 1016 30 846 24.98 24.7 76.5 31 6.7 44.1
10:15 1016 30 846 24.98 24.1 75.3 31 6 42.7
10:20 1016 30 845 24.95 24.3 75.7 29 5.3 41.6
10:25 1016 30 845 24.95 25.2 77.4 28 5.6 42.1
10:30 1016 30 845 24.95 25.8 78.4 28 6.1 43
10:35 1016 30 845 24.95 25.7 78.3 29 6.4 43.6
10:40 1016 30 845 24.95 25.9 78.6 27 5.7 42.3
10:45 1016 30 845 24.95 25.6 78 28 5.7 42.3
10:50 1016 30 845 24.95 25.3 77.5 28 5.7 42.3
10:55 1016 30 845 24.95 26.4 79.5 26 5.6 42.2
11:00 1016 30 845 24.95 27.3 81.1 23 4.7 40.5
11:05 1016 30 845 24.95 27 80.7 26 6.1 43
11:10 1016 30 845 24.95 26.6 79.9 24 4.9 40.8
11:15 1016 30 845 24.95 25.8 78.5 26 5.1 41.2
11:20 1016 30 845 24.95 26.6 79.8 25 5.1 41.3
11:25 1016 30 845 24.95 27.6 81.6 25 6 42.8
11:30 1016 30 845 24.95 27.2 81 25 5.9 42.6
11:35 1016 30 845 24.95 27.1 80.8 25 5.4 41.7
11:40 1015 29.97 845 24.95 28.1 82.6 23 5.6 42.1
11:45 1015 29.97 845 24.95 28.2 82.8 24 6.3 43.3
11:50 1015 29.97 844 24.92 27.9 82.3 24 6 42.9
11:55 1015 29.97 844 24.92 27.9 82.2 24 6 42.8
12:00 1015 29.97 844 24.92 28 82.4 24 5.9 42.7
12:05 1015 29.97 844 24.92 28.6 83.4 22 5.2 41.3
12:10 1015 29.97 844 24.92 28.9 84 20 4.2 39.5
12:15 1015 29.97 844 24.92 29 84.2 21 4.5 40.2
12:20 1015 29.97 844 24.92 28.6 83.5 22 5.4 41.7
12:25 1015 29.97 844 24.92 29.4 85 21 5 41.1
12:30 1015 29.97 844 24.92 29.1 84.3 21 5.1 41.2
12:35 1015 29.97 844 24.92 30 86 19 4.4 39.9
12:40 1015 29.97 844 24.92 30.4 86.8 19 4.2 39.5
12:45 1014 29.94 844 24.92 30.5 87 21 5.9 42.5
12:50 1014 29.94 844 24.92 30.5 87 20 5.1 41.1
12:55 1014 29.94 843 24.89 30.5 86.9 19 4.8 40.7
13:00 1014 29.94 843 24.89 29.8 85.6 19 4 39.3
13:05 1014 29.94 843 24.89 29.9 85.8 20 4.6 40.2
13:10 1014 29.94 843 24.89 30.4 86.8 18 3.8 38.9
13:15 1014 29.94 843 24.89 30.7 87.2 19 5.1 41.1
13:20 1014 29.94 843 24.89 30.6 87.1 19 4.9 40.9
13:25 1014 29.94 843 24.89 29.5 85.1 21 5.1 41.1
13:30 1014 29.94 843 24.89 30.1 86.1 19 4.3 39.7
13:35 1014 29.94 843 24.89 30.6 87.1 18 4.1 39.3
13:40 1014 29.94 843 24.89 30.6 87.1 20 5.5 42
13:45 1014 29.94 843 24.89 30.1 86.1 20 4.8 40.6
13:50 1014 29.94 843 24.89 30.3 86.6 19 4.7 40.4
13:55 1014 29.94 843 24.89 29.6 85.3 20 4.7 40.5
14:00 1014 29.94 843 24.89 29.6 85.2 20 4.4 39.9
14:05 1014 29.94 843 24.89 30 85.9 19 4.1 39.3
14:10 1014 29.94 843 24.89 30.1 86.2 19 4.6 40.3
14:15 1013 29.91 843 24.89 29.6 85.3 20 4.3 39.8
14:20 1013 29.91 843 24.89 29.3 84.7 20 4 39.2
14:25 1014 29.94 843 24.89 29.2 84.6 20 4.1 39.5
14:30 1014 29.94 843 24.89 30.4 86.8 18 4.1 39.3
14:35 1014 29.94 843 24.89 31.2 88.1 17 3.5 38.3
14:40 1014 29.94 843 24.89 30.3 86.6 18 4.1 39.3
14:45 1014 29.94 843 24.89 31 87.7 19 4.8 40.7
14:50 1014 29.94 843 24.89 30.3 86.5 18 3.7 38.7
14:55 1014 29.94 843 24.89 29.8 85.6 18 3.6 38.5
15:00 1014 29.94 843 24.89 29.6 85.3 19 3.5 38.3
15:05 1013 29.91 843 24.89 28.7 83.6 20 3.9 39
15:10 1013 29.91 842 24.86 28.4 83 18 2 35.7
15:15 1013 29.91 842 24.86 27.7 81.9 20 3.1 37.7
15:20 1013 29.91 842 24.86 28.1 82.5 20 3 37.4
15:25 1013 29.91 842 24.86 28.2 82.8 18 2.2 35.9
15:30 1013 29.91 842 24.86 28.6 83.5 18 2.3 36.1
15:35 1013 29.91 842 24.86 28.6 83.5 22 5 41
15:40 1013 29.91 842 24.86 27.6 81.7 22 4.6 40.2
15:45 1013 29.91 842 24.86 27.2 80.9 25 5.9 42.7
15:50 1013 29.91 842 24.86 26.1 78.9 27 5.7 42.2
15:55 1013 29.91 842 24.86 25.6 78 28 6.1 43
16:00 1013 29.91 842 24.86 25.1 77.2 29 6.1 43.1
16:05 1013 29.91 842 24.86 25.1 77.1 27 5.2 41.4
16:10 1013 29.91 842 24.86 24.9 76.8 28 5.4 41.8
16:15 1013 29.91 842 24.86 24.9 76.8 29 5.8 42.4
16:20 1013 29.91 842 24.86 24.7 76.5 27 4.7 40.5
16:25 1013 29.91 842 24.86 24.6 76.3 29 5.6 42.1
16:30 1013 29.91 842 24.86 24.4 75.8 30 5.7 42.3
16:35 1013 29.91 842 24.86 24.9 76.8 28 5.5 41.9
16:40 1013 29.91 842 24.86 25.6 78.1 28 5.8 42.5
16:45 1013 29.91 842 24.86 25.6 78 29 6.3 43.3
16:50 1013 29.91 842 24.86 25.1 77.1 29 5.8 42.5
16:55 1013 29.91 842 24.86 25 77 29 6.1 43
17:00 1013 29.91 842 24.86 24.7 76.5 32 7.3 45.1
17:05 1013 29.91 842 24.86 24.2 75.5 32 6.9 44.4
17:10 1013 29.91 842 24.86 24 75.2 32 6.5 43.6
17:15 1013 29.91 842 24.86 23.7 74.6 34 7.3 45.1
17:20 1014 29.94 843 24.89 23 73.5 36 7.2 45
17:25 1015 29.97 844 24.92 22.9 73.2 40 8.8 47.8
17:30 1015 29.97 844 24.92 22.8 73.1 50 12.1 53.7
17:35 1015 29.97 844 24.92 20.2 68.4 67 14 57.2
17:40 1015 29.97 844 24.92 17.9 64.1 74 13.3 55.9
17:45 1016 30 845 24.95 17.1 62.9 72 12.1 53.9
17:50 1016 30 845 24.95 17.3 63.1 71 12 53.6
17:55 1016 30 845 24.95 17.1 62.8 72 12.1 53.8
18:00 1016 30 845 24.95 17.4 63.3 71 12.1 53.7
18:05 1015 29.97 845 24.95 17.2 62.9 69 11.6 52.8
18:10 1015 29.97 844 24.92 17.7 63.9 64 10.9 51.6
18:15 1015 29.97 845 24.95 18.1 64.5 61 10.6 51
18:20 1016 30 845 24.95 18.2 64.8 62 10.8 51.4
18:25 1016 30 845 24.95 18.5 65.3 59 10.6 51
18:30 1016 30 845 24.95 18.7 65.7 60 10.8 51.4
18:35 1016 30 845 24.95 18.7 65.7 60 11 51.8
18:40 1016 30 845 24.95 18.9 66 57 10.3 50.5
18:45 1016 30 845 24.95 19.2 66.5 57 10.5 51
18:50 1016 30 845 24.95 19.3 66.7 56 10.3 50.5
18:55 1016 30 845 24.95 19.3 66.8 54 9.9 49.9
19:00 1016 30 846 24.98 19.5 67.1 54 10 50
19:05 1016 30 846 24.98 19.5 67 54 10.1 50.2
19:10 1016 30 845 24.95 19.2 66.5 55 10.2 50.3
19:15 1016 30 845 24.95 19 66.3 56 10.2 50.4
19:20 1016 30 845 24.95 19.1 66.3 56 10.3 50.5
19:25 1016 30 845 24.95 19.2 66.5 56 10.3 50.6
19:30 1016 30 845 24.95 19.1 66.4 58 10.7 51.3
19:35 1016 30 845 24.95 19 66.1 60 11.1 52
19:40 1016 30 845 24.95 18.7 65.6 59 10.7 51.3
19:45 1016 30 845 24.95 18.9 66.1 55 9.8 49.7
19:50 1016 30 845 24.95 19.3 66.7 59 11.1 52
19:55 1016 30 845 24.95 19 66.1 60 11 51.8
20:00 1016 30 846 24.98 18.5 65.3 60 10.8 51.5
20:05 1017 30.03 846 24.98 18.4 65.1 61 10.8 51.4
20:10 1017 30.03 846 24.98 18.6 65.5 58 10.2 50.4
20:15 1017 30.03 846 24.98 18.7 65.6 56 9.8 49.6
20:20 1017 30.03 846 24.98 19 66.2 55 9.9 49.8
20:25 1016 30 846 24.98 19 66.3 56 10.2 50.4
20:30 1016 30 846 24.98 19 66.2 55 9.8 49.6
20:35 1016 30 845 24.95 19.1 66.3 54 9.7 49.4
20:40 1016 30 845 24.95 18.9 66.1 54 9.5 49.1
20:45 1016 30 845 24.95 19.1 66.3 53 9.4 49
20:50 1016 30 845 24.95 18.6 65.5 60 10.8 51.5
20:55 1016 30 845 24.95 18 64.5 61 10.6 51.1
21:00 1016 30 845 24.95 17.8 64 62 10.5 50.9
21:05 1016 30 846 24.98 17.6 63.8 64 10.8 51.4
21:10 1016 30 846 24.98 17.4 63.4 65 10.8 51.4
21:15 1016 30 846 24.98 17.5 63.5 63 10.4 50.7
21:20 1016 30 846 24.98 17.7 63.8 61 10.2 50.4
21:25 1016 30 846 24.98 17.7 63.9 63 10.6 51.1
21:30 1016 30 846 24.98 17.6 63.7 63 10.6 51.1
21:35 1016 30 845 24.95 17.7 63.8 61 10.2 50.4
21:40 1016 30 846 24.98 17.7 63.9 61 10.1 50.2
21:45 1017 30.03 846 24.98 17.8 64 59 9.7 49.4
21:50 1017 30.03 846 24.98 17.9 64.2 61 10.3 50.5
21:55 1017 30.03 846 24.98 17.8 64 61 10.3 50.6
22:00 1016 30 846 24.98 17.6 63.6 62 10.4 50.7
22:05 1017 30.03 846 24.98 17.6 63.6 62 10.4 50.6
22:10 1016 30 846 24.98 17.4 63.3 63 10.4 50.7
22:15 1016 30 846 24.98 17.3 63.2 63 10.2 50.4
22:20 1016 30 846 24.98 17.3 63.2 63 10.2 50.4
22:25 1017 30.03 846 24.98 17.2 63 63 10.1 50.2
22:30 1017 30.03 846 24.98 17.2 62.9 63 10.2 50.4
22:35 1016 30 846 24.98 17 62.7 64 10.3 50.6
22:40 1016 30 846 24.98 17 62.7 64 10.2 50.4
22:45 1016 30 846 24.98 17 62.6 64 10.2 50.4
22:50 1016 30 846 24.98 16.9 62.4 64 10.1 50.2
22:55 1016 30 846 24.98 16.8 62.2 64 10 50.1
23:00 1016 30 846 24.98 16.8 62.3 63 9.8 49.7
23:05 1016 30 846 24.98 16.9 62.3 63 9.8 49.6
23:10 1016 30 846 24.98 16.9 62.4 63 9.8 49.7
23:15 1016 30 846 24.98 16.7 62 64 10 50
23:20 1016 30 846 24.98 16.4 61.6 63 9.5 49.1
23:25 1016 30 846 24.98 16.5 61.7 63 9.5 49.1
23:30 1016 30 846 24.98 16.4 61.5 63 9.4 49
23:35 1016 30 846 24.98 16.2 61.2 64 9.4 48.9
23:40 1016 30 846 24.98 16.2 61.1 63 9.3 48.8
23:45 1016 30 846 24.98 16.2 61.2 62 9.1 48.3
23:50 1016 30 846 24.98 16.3 61.4 62 9.1 48.4
23:55 1017 30.03 846 24.98 16.3 61.4 62 9.2 48.6
24:00 1017 30.03 846 24.98 16 60.8 63 9.1 48.3